createdAt,value
2023-03-07T00:00:02.260Z,29.60
2023-03-07T00:01:02.252Z,30.30
2023-03-07T00:02:02.236Z,30.50
2023-03-07T00:03:02.271Z,30.50
2023-03-07T00:04:02.312Z,31.70
2023-03-07T00:05:02.195Z,29.60
2023-03-07T00:06:02.183Z,27.00
2023-03-07T00:07:02.180Z,27.20
2023-03-07T00:08:02.192Z,25.50
2023-03-07T00:09:02.142Z,29.40
2023-03-07T00:10:02.131Z,30.10
2023-03-07T00:11:02.109Z,31.20
2023-03-07T00:12:02.104Z,30.30
2023-03-07T00:13:02.110Z,28.30
2023-03-07T00:14:02.083Z,28.90
2023-03-07T00:15:02.077Z,28.30
2023-03-07T00:16:02.065Z,29.30
2023-03-07T00:17:02.039Z,18.00
2023-03-07T00:18:02.037Z,27.40
2023-03-07T00:19:02.032Z,29.30
2023-03-07T00:20:01.998Z,31.40
2023-03-07T00:21:02.003Z,31.20
2023-03-07T00:22:01.982Z,28.70
2023-03-07T00:23:01.981Z,25.20
2023-03-07T00:24:01.964Z,26.00
2023-03-07T00:25:01.947Z,29.20
2023-03-07T00:26:01.929Z,22.70
2023-03-07T00:27:01.917Z,32.50
2023-03-07T00:28:01.910Z,26.20
2023-03-07T00:29:01.885Z,28.30
2023-03-07T00:30:01.955Z,29.90
2023-03-07T00:31:01.918Z,27.40
2023-03-07T00:32:01.907Z,19.40
2023-03-07T00:33:01.849Z,22.50
2023-03-07T00:34:01.817Z,33.70
2023-03-07T00:35:01.813Z,22.50
2023-03-07T00:36:01.868Z,24.30
2023-03-07T00:37:01.796Z,33.70
2023-03-07T00:38:01.788Z,31.40
2023-03-07T00:39:01.768Z,32.70
2023-03-07T00:40:01.769Z,34.80
2023-03-07T00:41:01.739Z,37.00
2023-03-07T00:42:01.725Z,36.10
2023-03-07T00:43:01.727Z,32.90
2023-03-07T00:44:01.701Z,33.70
2023-03-07T00:45:01.701Z,34.90
2023-03-07T00:46:01.744Z,33.70
2023-03-07T00:47:01.659Z,29.40
2023-03-07T00:48:01.656Z,29.60
2023-03-07T00:49:01.630Z,36.20
2023-03-07T00:50:01.623Z,34.30
2023-03-07T00:51:01.609Z,31.40
2023-03-07T00:52:01.591Z,33.50
2023-03-07T00:53:01.595Z,32.80
2023-03-07T00:54:01.591Z,34.20
2023-03-07T00:55:01.573Z,32.40
2023-03-07T00:56:01.583Z,34.20
2023-03-07T00:57:01.532Z,36.10
2023-03-07T00:58:01.519Z,35.10
2023-03-07T00:59:01.523Z,38.60
2023-03-07T01:00:01.494Z,35.80
2023-03-07T01:01:01.535Z,37.00
2023-03-07T01:02:01.468Z,35.60
2023-03-07T01:03:01.453Z,39.10
2023-03-07T01:04:01.475Z,34.90
2023-03-07T01:05:01.429Z,36.70
2023-03-07T01:06:01.422Z,27.60
2023-03-07T01:07:01.409Z,34.50
2023-03-07T01:08:01.393Z,37.50
2023-03-07T01:09:01.396Z,33.00
2023-03-07T01:10:01.367Z,34.30
2023-03-07T01:11:01.368Z,33.00
2023-03-07T01:12:01.459Z,37.60
2023-03-07T01:13:01.327Z,31.30
2023-03-07T01:14:01.332Z,28.40
2023-03-07T01:15:01.302Z,34.10
2023-03-07T01:16:01.292Z,35.60
2023-03-07T01:17:01.277Z,37.10
2023-03-07T01:18:01.265Z,37.20
2023-03-07T01:19:01.280Z,38.50
2023-03-07T01:20:01.247Z,37.60
2023-03-07T01:21:01.224Z,36.60
2023-03-07T01:22:01.239Z,32.80
2023-03-07T01:23:01.201Z,27.90
2023-03-07T01:24:01.204Z,37.30
2023-03-07T01:25:01.181Z,37.30
2023-03-07T01:26:01.168Z,39.10
2023-03-07T01:27:01.157Z,38.80
2023-03-07T01:28:01.158Z,38.80
2023-03-07T01:29:01.145Z,37.60
2023-03-07T01:30:01.110Z,39.30
2023-03-07T01:31:01.142Z,30.20
2023-03-07T01:32:01.160Z,41.40
2023-03-07T01:33:01.074Z,40.30
2023-03-07T01:34:01.088Z,40.80
2023-03-07T01:35:01.048Z,40.70
2023-03-07T01:36:01.125Z,43.70
2023-03-07T01:37:01.028Z,43.60
2023-03-07T01:38:01.010Z,40.90
2023-03-07T01:39:01.026Z,40.90
2023-03-07T01:40:00.981Z,39.90
2023-03-07T01:41:00.970Z,40.50
2023-03-07T01:42:00.960Z,46.20
2023-03-07T01:43:00.956Z,47.30
2023-03-07T01:44:00.970Z,49.80
2023-03-07T01:45:00.929Z,47.60
2023-03-07T01:46:00.965Z,46.70
2023-03-07T01:47:01.005Z,46.60
2023-03-07T01:48:00.885Z,38.40
2023-03-07T01:49:00.898Z,45.70
2023-03-07T01:50:00.951Z,49.40
2023-03-07T01:51:00.848Z,47.60
2023-03-07T01:52:00.834Z,52.90
2023-03-07T01:53:00.832Z,47.80
2023-03-07T01:54:00.819Z,49.80
2023-03-07T01:55:00.795Z,51.80
2023-03-07T01:56:00.778Z,51.00
2023-03-07T01:57:00.767Z,49.80
2023-03-07T01:58:00.754Z,52.30
2023-03-07T01:59:00.743Z,48.30
2023-03-07T02:00:00.764Z,52.80
2023-03-07T02:01:00.752Z,52.70
2023-03-07T02:02:00.705Z,52.60
2023-03-07T02:03:00.713Z,55.60
2023-03-07T02:04:00.704Z,54.60
2023-03-07T02:05:00.690Z,53.60
2023-03-07T02:06:00.660Z,48.50
2023-03-07T02:07:00.639Z,53.90
2023-03-07T02:08:00.626Z,47.10
2023-03-07T02:09:00.626Z,54.30
2023-03-07T02:10:00.628Z,57.30
2023-03-07T02:11:00.592Z,58.10
2023-03-07T02:12:00.575Z,54.20
2023-03-07T02:13:00.559Z,55.70
2023-03-07T02:14:00.572Z,59.50
2023-03-07T02:15:00.556Z,58.50
2023-03-07T02:16:00.630Z,56.00
2023-03-07T02:17:00.510Z,61.00
2023-03-07T02:18:00.503Z,56.90
2023-03-07T02:19:00.488Z,58.10
2023-03-07T02:20:00.486Z,58.60
2023-03-07T02:21:00.460Z,47.60
2023-03-07T02:22:00.458Z,54.20
2023-03-07T02:23:00.439Z,57.90
2023-03-07T02:24:00.424Z,56.20
2023-03-07T02:25:00.429Z,52.70
2023-03-07T02:26:00.399Z,59.50
2023-03-07T02:27:00.387Z,56.40
2023-03-07T02:28:00.408Z,58.20
2023-03-07T02:29:00.369Z,58.10
2023-03-07T02:30:00.365Z,59.50
2023-03-07T02:31:00.380Z,57.80
2023-03-07T02:32:00.347Z,59.70
2023-03-07T02:33:00.320Z,53.20
2023-03-07T02:34:00.309Z,57.40
2023-03-07T02:35:00.328Z,56.00
2023-03-07T02:36:00.344Z,59.00
2023-03-07T02:37:00.257Z,58.50
2023-03-07T02:38:00.244Z,63.00
2023-03-07T02:39:00.236Z,56.20
2023-03-07T02:40:00.251Z,51.80
2023-03-07T02:41:00.221Z,55.30
2023-03-07T02:42:00.202Z,61.50
2023-03-07T02:43:00.184Z,58.60
2023-03-07T02:44:00.172Z,58.90
2023-03-07T02:45:00.172Z,58.50
2023-03-07T02:46:00.228Z,55.90
2023-03-07T02:47:00.130Z,62.90
2023-03-07T02:48:00.242Z,59.10
2023-03-07T02:49:00.120Z,56.80
2023-03-07T02:50:00.185Z,64.40
2023-03-07T02:51:00.097Z,60.60
2023-03-07T02:52:00.098Z,65.60
2023-03-07T02:53:00.075Z,69.00
2023-03-07T02:54:00.064Z,67.40
2023-03-07T02:55:00.087Z,65.80
2023-03-07T02:56:00.021Z,71.70
2023-03-07T02:57:00.006Z,65.40
2023-03-07T02:57:59.996Z,68.50
2023-03-07T02:58:59.986Z,70.20
2023-03-07T03:00:00.009Z,63.60
2023-03-07T03:00:59.958Z,63.00
2023-03-07T03:01:59.990Z,65.60
2023-03-07T03:02:59.937Z,70.50
2023-03-07T03:03:59.943Z,64.70
2023-03-07T03:04:59.951Z,59.40
2023-03-07T03:05:59.920Z,59.50
2023-03-07T03:06:59.886Z,62.80
2023-03-07T03:07:59.874Z,72.20
2023-03-07T03:08:59.867Z,61.10
2023-03-07T03:09:59.847Z,65.60
2023-03-07T03:10:59.856Z,68.90
2023-03-07T03:11:59.824Z,67.30
2023-03-07T03:12:59.813Z,56.50
2023-03-07T03:13:59.798Z,61.40
2023-03-07T03:14:59.789Z,66.10
2023-03-07T03:15:59.943Z,74.00
2023-03-07T03:16:59.769Z,72.10
2023-03-07T03:17:59.748Z,72.20
2023-03-07T03:18:59.736Z,60.60
2023-03-07T03:19:59.787Z,63.30
2023-03-07T03:20:59.745Z,66.90
2023-03-07T03:21:59.704Z,70.20
2023-03-07T03:22:59.689Z,55.30
2023-03-07T03:23:59.674Z,59.40
2023-03-07T03:24:59.694Z,49.10
2023-03-07T03:25:59.665Z,60.30
2023-03-07T03:26:59.655Z,65.00
2023-03-07T03:27:59.626Z,60.90
2023-03-07T03:28:59.614Z,65.60
2023-03-07T03:29:59.599Z,69.00
2023-03-07T03:30:59.630Z,56.10
2023-03-07T03:31:59.571Z,60.00
2023-03-07T03:32:59.560Z,51.80
2023-03-07T03:33:59.550Z,57.50
2023-03-07T03:34:59.535Z,56.10
2023-03-07T03:35:59.597Z,58.80
2023-03-07T03:36:59.517Z,60.10
2023-03-07T03:37:59.495Z,64.90
2023-03-07T03:38:59.480Z,57.50
2023-03-07T03:39:59.479Z,61.70
2023-03-07T03:40:59.517Z,58.60
2023-03-07T03:41:59.440Z,61.90
2023-03-07T03:42:59.434Z,60.00
2023-03-07T03:43:59.415Z,65.10
2023-03-07T03:44:59.407Z,43.70
2023-03-07T03:45:59.408Z,59.40
2023-03-07T03:46:59.477Z,66.30
2023-03-07T03:47:59.367Z,61.20
2023-03-07T03:48:59.354Z,69.20
2023-03-07T03:49:59.348Z,66.90
2023-03-07T03:50:59.371Z,62.40
2023-03-07T03:51:59.336Z,53.80
2023-03-07T03:52:59.310Z,59.50
2023-03-07T03:53:59.287Z,53.90
2023-03-07T03:54:59.282Z,52.90
2023-03-07T03:55:59.265Z,69.10
2023-03-07T03:56:59.291Z,61.80
2023-03-07T03:57:59.243Z,55.60
2023-03-07T03:58:59.238Z,60.40
2023-03-07T03:59:59.221Z,64.00
2023-03-07T04:00:59.209Z,59.00
2023-03-07T04:01:59.372Z,63.70
2023-03-07T04:02:59.332Z,60.60
2023-03-07T04:03:59.176Z,65.30
2023-03-07T04:04:59.152Z,62.60
2023-03-07T04:05:59.136Z,63.00
2023-03-07T04:06:59.149Z,59.30
2023-03-07T04:07:59.134Z,60.10
2023-03-07T04:08:59.100Z,50.20
2023-03-07T04:09:59.095Z,54.60
2023-03-07T04:10:59.081Z,58.10
2023-03-07T04:11:59.079Z,57.70
2023-03-07T04:12:59.045Z,50.90
2023-03-07T04:13:59.039Z,62.10
2023-03-07T04:14:59.026Z,55.70
2023-03-07T04:15:59.012Z,54.70
2023-03-07T04:16:59.016Z,55.40
2023-03-07T04:17:58.993Z,49.10
2023-03-07T04:18:58.982Z,54.90
2023-03-07T04:19:58.956Z,59.90
2023-03-07T04:20:58.950Z,52.60
2023-03-07T04:21:58.955Z,53.80
2023-03-07T04:22:58.925Z,49.60
2023-03-07T04:23:58.937Z,51.90
2023-03-07T04:24:58.900Z,51.50
2023-03-07T04:25:58.968Z,51.00
2023-03-07T04:26:58.889Z,48.90
2023-03-07T04:27:58.859Z,45.10
2023-03-07T04:28:58.853Z,43.30
2023-03-07T04:29:58.839Z,42.80
2023-03-07T04:30:58.820Z,49.50
2023-03-07T04:31:58.871Z,42.40
2023-03-07T04:32:58.791Z,45.90
2023-03-07T04:33:58.785Z,48.50
2023-03-07T04:34:58.778Z,41.30
2023-03-07T04:35:58.783Z,35.40
2023-03-07T04:36:58.758Z,40.60
2023-03-07T04:37:58.735Z,40.30
2023-03-07T04:38:58.720Z,35.70
2023-03-07T04:39:58.751Z,43.10
2023-03-07T04:40:58.696Z,42.00
2023-03-07T04:41:58.694Z,40.40
2023-03-07T04:42:58.665Z,40.30
2023-03-07T04:43:58.657Z,40.50
2023-03-07T04:44:58.645Z,42.10
2023-03-07T04:45:58.686Z,39.40
2023-03-07T04:46:58.633Z,36.70
2023-03-07T04:47:58.608Z,41.80
2023-03-07T04:48:58.673Z,37.90
2023-03-07T04:49:58.579Z,37.80
2023-03-07T04:50:58.569Z,38.50
2023-03-07T04:51:58.567Z,40.00
2023-03-07T04:52:58.540Z,40.30
2023-03-07T04:53:58.533Z,40.10
2023-03-07T04:54:58.525Z,42.00
2023-03-07T04:55:58.523Z,41.50
2023-03-07T04:56:58.511Z,40.90
2023-03-07T04:57:58.480Z,37.50
2023-03-07T04:58:58.468Z,39.90
2023-03-07T04:59:58.455Z,40.10
2023-03-07T05:00:58.543Z,40.70
2023-03-07T05:01:58.458Z,40.20
2023-03-07T05:02:58.415Z,36.60
2023-03-07T05:03:58.438Z,36.60
2023-03-07T05:04:58.387Z,36.40
2023-03-07T05:05:58.379Z,37.20
2023-03-07T05:06:58.400Z,34.60
2023-03-07T05:07:58.364Z,36.80
2023-03-07T05:08:58.343Z,37.00
2023-03-07T05:09:58.330Z,38.40
2023-03-07T05:10:58.326Z,32.10
2023-03-07T05:11:58.361Z,36.10
2023-03-07T05:12:58.295Z,35.30
2023-03-07T05:13:58.288Z,40.70
2023-03-07T05:14:58.264Z,38.40
2023-03-07T05:15:58.350Z,37.70
2023-03-07T05:16:58.245Z,36.00
2023-03-07T05:17:58.251Z,37.90
2023-03-07T05:18:58.215Z,38.20
2023-03-07T05:19:58.208Z,39.20
2023-03-07T05:20:58.188Z,36.90
2023-03-07T05:21:58.182Z,31.80
2023-03-07T05:22:58.183Z,37.40
2023-03-07T05:23:58.153Z,36.20
2023-03-07T05:24:58.133Z,34.60
2023-03-07T05:25:58.123Z,34.00
2023-03-07T05:26:58.107Z,35.90
2023-03-07T05:27:58.136Z,34.60
2023-03-07T05:28:58.083Z,36.70
2023-03-07T05:29:58.073Z,33.10
2023-03-07T05:30:58.137Z,37.40
2023-03-07T05:31:58.052Z,36.00
2023-03-07T05:32:58.050Z,33.20
2023-03-07T05:33:58.023Z,33.20
2023-03-07T05:34:58.011Z,37.90
2023-03-07T05:35:58.044Z,34.60
2023-03-07T05:36:57.982Z,36.80
2023-03-07T05:37:57.983Z,36.10
2023-03-07T05:38:57.961Z,34.00
2023-03-07T05:39:57.948Z,35.40
2023-03-07T05:40:57.931Z,29.60
2023-03-07T05:41:57.920Z,32.40
2023-03-07T05:42:57.919Z,33.10
2023-03-07T05:43:57.935Z,28.10
2023-03-07T05:44:57.881Z,31.10
2023-03-07T05:45:57.936Z,29.00
2023-03-07T05:46:57.854Z,30.90
2023-03-07T05:47:57.862Z,31.20
2023-03-07T05:48:57.830Z,33.80
2023-03-07T05:49:57.824Z,32.10
2023-03-07T05:50:57.807Z,32.10
2023-03-07T05:51:57.799Z,34.00
2023-03-07T05:52:57.822Z,29.40
2023-03-07T05:53:57.772Z,30.00
2023-03-07T05:54:57.769Z,32.10
2023-03-07T05:55:57.744Z,32.60
2023-03-07T05:56:57.732Z,35.50
2023-03-07T05:57:57.738Z,33.40
2023-03-07T05:58:57.709Z,28.30
2023-03-07T05:59:57.773Z,32.60
2023-03-07T06:00:57.682Z,29.80
2023-03-07T06:01:57.664Z,32.50
2023-03-07T06:02:57.708Z,32.00
2023-03-07T06:03:57.656Z,33.80
2023-03-07T06:04:57.629Z,30.00
2023-03-07T06:05:57.620Z,32.30
2023-03-07T06:06:57.604Z,31.00
2023-03-07T06:07:57.607Z,30.90
2023-03-07T06:08:57.616Z,34.00
2023-03-07T06:09:57.581Z,32.70
2023-03-07T06:10:57.558Z,32.80
2023-03-07T06:11:57.541Z,30.20
2023-03-07T06:12:57.542Z,33.30
2023-03-07T06:13:57.551Z,33.80
2023-03-07T06:14:57.501Z,29.30
2023-03-07T06:15:57.535Z,31.20
2023-03-07T06:16:57.516Z,31.80
2023-03-07T06:17:57.477Z,32.30
2023-03-07T06:18:57.452Z,29.50
2023-03-07T06:19:57.439Z,34.70
2023-03-07T06:20:57.420Z,34.20
2023-03-07T06:21:57.409Z,34.60
2023-03-07T06:22:57.418Z,32.00
2023-03-07T06:23:57.390Z,31.40
2023-03-07T06:24:57.376Z,34.10
2023-03-07T06:25:57.373Z,32.50
2023-03-07T06:26:57.352Z,34.80
2023-03-07T06:27:57.360Z,32.60
2023-03-07T06:28:57.336Z,33.80
2023-03-07T06:29:57.310Z,34.40
2023-03-07T06:30:57.298Z,34.50
2023-03-07T06:31:57.364Z,31.30
2023-03-07T06:32:57.337Z,31.40
2023-03-07T06:33:57.759Z,33.40
2023-03-07T06:34:57.245Z,33.90
2023-03-07T06:35:57.281Z,31.70
2023-03-07T06:36:57.219Z,30.20
2023-03-07T06:37:57.231Z,31.50
2023-03-07T06:38:57.210Z,31.20
2023-03-07T06:39:57.205Z,30.10
2023-03-07T06:40:57.170Z,33.50
2023-03-07T06:41:57.162Z,31.80
2023-03-07T06:42:57.148Z,31.20
2023-03-07T06:43:57.161Z,33.00
2023-03-07T06:44:57.123Z,32.50
2023-03-07T06:45:57.265Z,29.40
2023-03-07T06:46:57.124Z,32.00
2023-03-07T06:47:57.099Z,33.90
2023-03-07T06:48:57.092Z,30.40
2023-03-07T06:49:57.060Z,30.30
2023-03-07T06:50:57.049Z,30.60
2023-03-07T06:51:57.033Z,29.70
2023-03-07T06:52:57.018Z,30.00
2023-03-07T06:53:57.022Z,28.60
2023-03-07T06:54:56.993Z,29.20
2023-03-07T06:55:56.987Z,29.50
2023-03-07T06:56:56.971Z,27.10
2023-03-07T06:57:56.968Z,27.10
2023-03-07T06:58:56.953Z,31.10
2023-03-07T06:59:56.932Z,29.10
2023-03-07T07:00:56.920Z,23.80
2023-03-07T07:01:57.043Z,29.10
2023-03-07T07:02:57.038Z,30.20
2023-03-07T07:03:56.913Z,29.60
2023-03-07T07:04:56.864Z,26.70
2023-03-07T07:05:56.853Z,28.80
2023-03-07T07:06:56.836Z,28.10
2023-03-07T07:07:56.823Z,27.70
2023-03-07T07:08:56.840Z,28.20
2023-03-07T07:09:56.813Z,27.70
2023-03-07T07:10:56.784Z,27.90
2023-03-07T07:11:56.778Z,28.70
2023-03-07T07:12:56.801Z,28.40
2023-03-07T07:13:56.764Z,29.70
2023-03-07T07:14:56.733Z,28.80
2023-03-07T07:15:56.721Z,28.70
2023-03-07T07:16:56.708Z,28.30
2023-03-07T07:17:56.707Z,29.30
2023-03-07T07:18:56.696Z,28.40
2023-03-07T07:19:56.693Z,25.10
2023-03-07T07:20:56.661Z,20.60
2023-03-07T07:21:56.649Z,28.40
2023-03-07T07:22:56.631Z,26.10
2023-03-07T07:23:56.646Z,29.20
2023-03-07T07:24:56.606Z,29.30
2023-03-07T07:25:56.593Z,27.50
2023-03-07T07:26:56.590Z,25.10
2023-03-07T07:27:56.571Z,23.90
2023-03-07T07:28:56.571Z,27.00
2023-03-07T07:29:56.559Z,27.60
2023-03-07T07:30:56.539Z,26.00
2023-03-07T07:31:56.618Z,24.30
2023-03-07T07:32:56.600Z,22.10
2023-03-07T07:33:56.509Z,27.30
2023-03-07T07:34:56.481Z,25.40
2023-03-07T07:35:56.544Z,24.00
2023-03-07T07:36:56.455Z,25.80
2023-03-07T07:37:56.452Z,26.50
2023-03-07T07:38:56.444Z,25.80
2023-03-07T07:39:56.423Z,23.20
2023-03-07T07:40:56.417Z,22.60
2023-03-07T07:41:56.400Z,25.00
2023-03-07T07:42:56.377Z,22.30
2023-03-07T07:43:56.379Z,24.90
2023-03-07T07:44:56.356Z,24.90
2023-03-07T07:45:56.389Z,19.10
2023-03-07T07:46:56.326Z,23.10
2023-03-07T07:47:56.319Z,23.50
2023-03-07T07:48:56.305Z,20.80
2023-03-07T07:49:56.312Z,24.50
2023-03-07T07:50:56.285Z,23.70
2023-03-07T07:51:56.294Z,23.30
2023-03-07T07:52:56.261Z,23.90
2023-03-07T07:53:56.258Z,23.70
2023-03-07T07:54:56.246Z,22.80
2023-03-07T07:55:56.220Z,23.50
2023-03-07T07:56:56.211Z,22.90
2023-03-07T07:57:56.221Z,22.00
2023-03-07T07:58:56.185Z,23.70
2023-03-07T07:59:56.178Z,19.50
2023-03-07T08:00:56.159Z,20.80
2023-03-07T08:01:56.145Z,23.40
2023-03-07T08:02:56.126Z,23.00
2023-03-07T08:03:56.113Z,21.20
2023-03-07T08:04:56.110Z,19.10
2023-03-07T08:05:56.088Z,22.90
2023-03-07T08:06:56.073Z,22.40
2023-03-07T08:07:56.098Z,21.80
2023-03-07T08:08:56.047Z,21.70
2023-03-07T08:09:56.055Z,22.00
2023-03-07T08:10:56.022Z,20.70
2023-03-07T08:11:56.025Z,20.90
2023-03-07T08:12:55.995Z,21.20
2023-03-07T08:13:56.002Z,21.00
2023-03-07T08:14:56.006Z,21.80
2023-03-07T08:15:56.012Z,23.10
2023-03-07T08:16:55.944Z,21.20
2023-03-07T08:17:55.952Z,21.70
2023-03-07T08:18:56.022Z,22.50
2023-03-07T08:19:55.929Z,21.80
2023-03-07T08:20:55.896Z,21.10
2023-03-07T08:21:55.886Z,20.60
2023-03-07T08:22:55.870Z,19.30
2023-03-07T08:23:55.890Z,22.20
2023-03-07T08:24:55.869Z,20.20
2023-03-07T08:25:55.835Z,19.30
2023-03-07T08:26:55.826Z,21.00
2023-03-07T08:27:55.821Z,22.00
2023-03-07T08:28:55.800Z,16.50
2023-03-07T08:29:55.808Z,19.10
2023-03-07T08:30:55.796Z,18.60
2023-03-07T08:31:55.760Z,20.70
2023-03-07T08:32:55.742Z,18.40
2023-03-07T08:33:55.749Z,18.50
2023-03-07T08:34:55.727Z,18.90
2023-03-07T08:35:55.819Z,20.10
2023-03-07T08:36:55.693Z,19.90
2023-03-07T08:37:55.695Z,20.00
2023-03-07T08:38:55.670Z,19.10
2023-03-07T08:39:55.712Z,22.30
2023-03-07T08:40:55.674Z,20.50
2023-03-07T08:41:55.661Z,16.40
2023-03-07T08:42:55.620Z,15.90
2023-03-07T08:43:55.625Z,17.30
2023-03-07T08:44:55.596Z,16.60
2023-03-07T08:45:55.664Z,17.00
2023-03-07T08:46:55.566Z,15.60
2023-03-07T08:47:55.563Z,15.80
2023-03-07T08:48:55.550Z,18.30
2023-03-07T08:49:55.527Z,15.20
2023-03-07T08:50:55.531Z,17.00
2023-03-07T08:51:55.507Z,18.60
2023-03-07T08:52:55.491Z,18.30
2023-03-07T08:53:55.485Z,16.00
2023-03-07T08:54:55.482Z,16.60
2023-03-07T08:55:55.489Z,17.80
2023-03-07T08:56:55.437Z,18.10
2023-03-07T08:57:55.427Z,17.30
2023-03-07T08:58:55.413Z,15.30
2023-03-07T08:59:55.404Z,16.10
2023-03-07T09:00:55.423Z,16.50
2023-03-07T09:01:55.453Z,15.30
2023-03-07T09:02:55.356Z,14.80
2023-03-07T09:03:55.348Z,14.40
2023-03-07T09:04:55.359Z,10.50
2023-03-07T09:05:55.342Z,13.60
2023-03-07T09:06:55.310Z,14.90
2023-03-07T09:07:55.297Z,14.80
2023-03-07T09:08:55.283Z,14.00
2023-03-07T09:09:55.273Z,11.80
2023-03-07T09:10:55.270Z,13.00
2023-03-07T09:11:55.266Z,14.80
2023-03-07T09:12:55.262Z,16.20
2023-03-07T09:13:55.271Z,13.30
2023-03-07T09:14:55.209Z,14.30
2023-03-07T09:15:55.239Z,15.60
2023-03-07T09:16:55.189Z,15.80
2023-03-07T09:17:55.171Z,11.80
2023-03-07T09:18:55.167Z,12.90
2023-03-07T09:19:55.145Z,14.60
2023-03-07T09:20:55.142Z,14.80
2023-03-07T09:21:55.110Z,11.00
2023-03-07T09:22:55.098Z,12.10
2023-03-07T09:23:55.084Z,14.30
2023-03-07T09:24:55.074Z,13.90
2023-03-07T09:25:55.080Z,16.90
2023-03-07T09:26:55.050Z,13.90
2023-03-07T09:27:55.062Z,12.30
2023-03-07T09:28:55.030Z,10.40
2023-03-07T09:29:55.005Z,17.40
2023-03-07T09:30:55.009Z,14.00
2023-03-07T09:31:54.994Z,16.00
2023-03-07T09:32:54.973Z,12.90
2023-03-07T09:33:54.985Z,10.80
2023-03-07T09:34:54.954Z,15.00
2023-03-07T09:35:55.060Z,13.50
2023-03-07T09:36:54.917Z,11.40
2023-03-07T09:37:54.914Z,13.90
2023-03-07T09:38:57.794Z,10.20
2023-03-07T09:39:54.882Z,11.20
2023-03-07T09:40:54.880Z,14.20
2023-03-07T09:41:54.856Z,11.80
2023-03-07T09:42:54.844Z,14.40
2023-03-07T09:43:54.857Z,9.50
2023-03-07T09:44:54.824Z,14.90
2023-03-07T09:45:54.919Z,13.90
2023-03-07T09:46:54.795Z,10.60
2023-03-07T09:47:54.773Z,9.80
2023-03-07T09:48:54.761Z,12.10
2023-03-07T09:49:54.749Z,11.30
2023-03-07T09:50:54.753Z,10.30
2023-03-07T09:51:54.726Z,13.20
2023-03-07T09:52:54.712Z,12.90
2023-03-07T09:53:54.698Z,14.20
2023-03-07T09:54:54.694Z,13.00
2023-03-07T09:55:54.716Z,13.70
2023-03-07T09:56:54.665Z,11.50
2023-03-07T09:57:54.653Z,8.60
2023-03-07T09:58:54.651Z,12.60
2023-03-07T09:59:54.645Z,11.10
2023-03-07T10:00:54.634Z,12.90
2023-03-07T10:01:54.612Z,15.00
2023-03-07T10:02:54.593Z,14.00
2023-03-07T10:03:54.738Z,11.90
2023-03-07T10:04:54.557Z,11.20
2023-03-07T10:05:54.569Z,11.80
2023-03-07T10:06:55.243Z,11.00
2023-03-07T10:07:54.520Z,10.90
2023-03-07T10:08:54.510Z,12.00
2023-03-07T10:09:54.496Z,11.20
2023-03-07T10:10:54.502Z,12.00
2023-03-07T10:11:54.511Z,12.40
2023-03-07T10:12:54.452Z,9.80
2023-03-07T10:13:54.442Z,8.00
2023-03-07T10:14:54.431Z,11.60
2023-03-07T10:15:54.521Z,16.40
2023-03-07T10:16:54.455Z,11.10
2023-03-07T10:17:54.412Z,11.00
2023-03-07T10:18:54.386Z,10.40
2023-03-07T10:19:54.385Z,12.20
2023-03-07T10:20:54.350Z,12.10
2023-03-07T10:21:54.352Z,8.90
2023-03-07T10:22:54.327Z,10.50
2023-03-07T10:23:54.315Z,7.60
2023-03-07T10:24:54.317Z,8.30
2023-03-07T10:25:54.286Z,9.00
2023-03-07T10:26:54.285Z,10.50
2023-03-07T10:27:54.260Z,8.40
2023-03-07T10:28:54.256Z,9.20
2023-03-07T10:29:54.235Z,9.70
2023-03-07T10:30:54.220Z,8.30
2023-03-07T10:31:54.409Z,6.50
2023-03-07T10:32:54.190Z,7.80
2023-03-07T10:33:54.176Z,7.50
2023-03-07T10:34:54.167Z,9.20
2023-03-07T10:35:54.183Z,7.50
2023-03-07T10:37:07.752Z,8.10
2023-03-07T10:37:54.125Z,7.70
2023-03-07T10:38:54.118Z,9.40
2023-03-07T10:39:54.158Z,8.50
2023-03-07T10:40:54.085Z,6.70
2023-03-07T10:41:54.084Z,7.30
2023-03-07T10:42:54.081Z,6.80
2023-03-07T10:43:54.051Z,6.80
2023-03-07T10:44:54.031Z,7.00
2023-03-07T10:45:54.080Z,8.10
2023-03-07T10:46:56.527Z,7.80
2023-03-07T10:47:54.019Z,6.60
2023-03-07T10:48:53.989Z,8.20
2023-03-07T10:49:53.970Z,8.40
2023-03-07T10:50:54.613Z,7.40
2023-03-07T10:51:53.980Z,7.60
2023-03-07T10:52:53.951Z,7.80
2023-03-07T10:53:53.916Z,7.80
2023-03-07T10:54:53.905Z,6.90
2023-03-07T10:55:53.890Z,8.50
2023-03-07T10:56:53.886Z,6.20
2023-03-07T10:57:53.856Z,7.20
2023-03-07T10:58:53.847Z,7.20
2023-03-07T10:59:53.850Z,7.40
2023-03-07T11:00:53.834Z,6.70
2023-03-07T11:01:53.818Z,6.90
2023-03-07T11:02:53.794Z,8.00
2023-03-07T11:03:56.881Z,7.20
2023-03-07T11:04:53.824Z,7.80
2023-03-07T11:05:53.754Z,7.80
2023-03-07T11:06:53.760Z,8.40
2023-03-07T11:07:53.727Z,7.30
2023-03-07T11:08:53.716Z,7.40
2023-03-07T11:09:53.704Z,7.60
2023-03-07T11:10:53.687Z,8.60
2023-03-07T11:11:53.698Z,6.20
2023-03-07T11:12:53.681Z,5.50
2023-03-07T11:13:53.647Z,6.50
2023-03-07T11:14:53.638Z,7.40
2023-03-07T11:16:02.903Z,7.50
2023-03-07T11:16:53.639Z,8.50
2023-03-07T11:17:53.604Z,7.30
2023-03-07T11:18:53.582Z,6.60
2023-03-07T11:19:53.593Z,7.80
2023-03-07T11:20:53.560Z,7.90
2023-03-07T11:21:53.560Z,9.50
2023-03-07T11:22:53.535Z,8.40
2023-03-07T11:23:53.563Z,6.90
2023-03-07T11:24:53.506Z,7.80
2023-03-07T11:25:53.502Z,5.80
2023-03-07T11:26:53.482Z,7.10
2023-03-07T11:27:53.492Z,6.00
2023-03-07T11:28:53.454Z,5.90
2023-03-07T11:29:53.439Z,6.50
2023-03-07T11:30:53.472Z,5.80
2023-03-07T11:31:53.430Z,6.10
2023-03-07T11:32:53.419Z,7.60
2023-03-07T11:34:00.162Z,5.10
2023-03-07T11:34:54.378Z,6.40
2023-03-07T11:35:53.444Z,7.90
2023-03-07T11:36:53.351Z,8.10
2023-03-07T11:37:53.347Z,8.30
2023-03-07T11:38:53.344Z,5.70
2023-03-07T11:39:53.315Z,8.10
2023-03-07T11:40:53.300Z,7.90
2023-03-07T11:41:53.283Z,7.80
2023-03-07T11:42:53.289Z,9.00
2023-03-07T11:43:53.264Z,9.10
2023-03-07T11:44:53.249Z,6.50
2023-03-07T11:45:53.231Z,7.50
2023-03-07T11:46:53.278Z,6.40
2023-03-07T11:47:53.237Z,7.20
2023-03-07T11:48:53.192Z,7.50
2023-03-07T11:49:53.184Z,8.90
2023-03-07T11:50:53.172Z,6.50
2023-03-07T11:51:53.189Z,7.60
2023-03-07T11:52:53.153Z,6.10
2023-03-07T11:53:53.136Z,10.00
2023-03-07T11:54:53.136Z,7.00
2023-03-07T11:55:53.102Z,5.70
2023-03-07T11:56:53.102Z,7.60
2023-03-07T11:57:53.096Z,6.60
2023-03-07T11:58:53.064Z,8.60
2023-03-07T11:59:53.051Z,7.60
2023-03-07T12:00:53.040Z,9.40
2023-03-07T12:01:53.024Z,6.30
2023-03-07T12:02:53.121Z,7.60
2023-03-07T12:03:53.472Z,6.20
2023-03-07T12:04:52.992Z,5.50
2023-03-07T12:05:53.131Z,7.40
2023-03-07T12:06:52.976Z,6.80
2023-03-07T12:07:52.970Z,8.10
2023-03-07T12:08:52.955Z,6.90
2023-03-07T12:09:52.925Z,5.40
2023-03-07T12:10:52.918Z,6.10
2023-03-07T12:11:52.900Z,6.00
2023-03-07T12:12:52.885Z,6.00
2023-03-07T12:13:52.892Z,5.80
2023-03-07T12:14:52.858Z,5.70
2023-03-07T12:15:52.971Z,5.70
2023-03-07T12:16:52.905Z,6.50
2023-03-07T12:17:52.821Z,6.10
2023-03-07T12:18:52.821Z,7.50
2023-03-07T12:19:52.790Z,6.90
2023-03-07T12:20:52.783Z,7.70
2023-03-07T12:21:52.768Z,7.60
2023-03-07T12:22:52.763Z,6.80
2023-03-07T12:23:52.771Z,5.80
2023-03-07T12:24:52.736Z,5.20
2023-03-07T12:25:52.727Z,5.70
2023-03-07T12:26:52.703Z,6.60
2023-03-07T12:27:52.693Z,7.10
2023-03-07T12:28:52.692Z,5.20
2023-03-07T12:29:52.662Z,4.50
2023-03-07T12:30:52.654Z,6.20
2023-03-07T12:31:52.768Z,6.30
2023-03-07T12:32:52.704Z,8.20
2023-03-07T12:33:52.624Z,5.60
2023-03-07T12:34:52.596Z,6.80
2023-03-07T12:35:52.688Z,6.60
2023-03-07T12:36:52.577Z,7.70
2023-03-07T12:37:52.560Z,7.10
2023-03-07T12:38:52.566Z,7.70
2023-03-07T12:39:52.573Z,6.50
2023-03-07T12:40:52.525Z,8.40
2023-03-07T12:41:52.511Z,8.50
2023-03-07T12:42:52.492Z,5.80
2023-03-07T12:43:52.508Z,6.70
2023-03-07T12:44:52.470Z,7.30
2023-03-07T12:45:52.625Z,7.30
2023-03-07T12:46:52.451Z,7.90
2023-03-07T12:47:52.435Z,8.80
2023-03-07T12:48:52.446Z,7.10
2023-03-07T12:49:52.404Z,6.60
2023-03-07T12:50:52.396Z,7.20
2023-03-07T12:51:52.384Z,8.10
2023-03-07T12:52:52.397Z,9.40
2023-03-07T12:53:52.374Z,10.50
2023-03-07T12:54:52.343Z,5.60
2023-03-07T12:55:52.356Z,6.50
2023-03-07T12:56:52.468Z,8.20